sensor_id;sensor_type;location;lat;lon;timestamp;P1;durP1;ratioP1;P2;durP2;ratioP2
26951;SDS011;14507;52.418;13.398;2022-07-22T00:01:33;7.63;;;5.57;;
26951;SDS011;14507;52.418;13.398;2022-07-22T00:03:58;13.60;;;5.75;;
26951;SDS011;14507;52.418;13.398;2022-07-22T00:06:24;7.65;;;5.78;;
26951;SDS011;14507;52.418;13.398;2022-07-22T00:08:50;8.27;;;5.63;;
26951;SDS011;14507;52.418;13.398;2022-07-22T00:11:16;7.40;;;5.70;;
26951;SDS011;14507;52.418;13.398;2022-07-22T00:13:41;9.50;;;6.22;;
26951;SDS011;14507;52.418;13.398;2022-07-22T00:16:07;8.40;;;5.93;;
26951;SDS011;14507;52.418;13.398;2022-07-22T00:18:32;8.90;;;5.93;;
26951;SDS011;14507;52.418;13.398;2022-07-22T00:20:58;11.02;;;6.63;;
26951;SDS011;14507;52.418;13.398;2022-07-22T00:23:23;8.57;;;6.00;;
26951;SDS011;14507;52.418;13.398;2022-07-22T00:25:49;12.20;;;6.40;;
26951;SDS011;14507;52.418;13.398;2022-07-22T00:28:15;9.63;;;6.45;;
26951;SDS011;14507;52.418;13.398;2022-07-22T00:30:40;10.55;;;6.50;;
26951;SDS011;14507;52.418;13.398;2022-07-22T00:33:06;10.70;;;6.78;;
26951;SDS011;14507;52.418;13.398;2022-07-22T00:35:31;13.20;;;7.28;;
26951;SDS011;14507;52.418;13.398;2022-07-22T00:37:57;16.10;;;8.40;;
26951;SDS011;14507;52.418;13.398;2022-07-22T00:40:23;11.35;;;7.63;;
26951;SDS011;14507;52.418;13.398;2022-07-22T00:42:48;14.52;;;7.90;;
26951;SDS011;14507;52.418;13.398;2022-07-22T00:45:14;13.55;;;7.70;;
26951;SDS011;14507;52.418;13.398;2022-07-22T00:47:40;10.63;;;8.23;;
26951;SDS011;14507;52.418;13.398;2022-07-22T00:50:05;13.35;;;8.00;;
26951;SDS011;14507;52.418;13.398;2022-07-22T00:52:32;11.63;;;7.72;;
26951;SDS011;14507;52.418;13.398;2022-07-22T00:54:59;11.95;;;6.93;;
26951;SDS011;14507;52.418;13.398;2022-07-22T00:57:26;11.50;;;7.37;;
26951;SDS011;14507;52.418;13.398;2022-07-22T00:59:52;12.15;;;6.85;;
26951;SDS011;14507;52.418;13.398;2022-07-22T01:02:18;10.80;;;6.65;;
26951;SDS011;14507;52.418;13.398;2022-07-22T01:04:44;9.20;;;6.20;;
26951;SDS011;14507;52.418;13.398;2022-07-22T01:07:09;7.63;;;6.28;;
26951;SDS011;14507;52.418;13.398;2022-07-22T01:09:35;8.93;;;6.05;;
26951;SDS011;14507;52.418;13.398;2022-07-22T01:12:02;8.02;;;5.60;;
26951;SDS011;14507;52.418;13.398;2022-07-22T01:14:28;9.43;;;6.28;;
26951;SDS011;14507;52.418;13.398;2022-07-22T01:16:54;8.20;;;5.90;;
26951;SDS011;14507;52.418;13.398;2022-07-22T01:19:20;11.30;;;5.82;;
26951;SDS011;14507;52.418;13.398;2022-07-22T01:21:46;8.57;;;6.07;;
26951;SDS011;14507;52.418;13.398;2022-07-22T01:24:11;7.32;;;5.15;;
26951;SDS011;14507;52.418;13.398;2022-07-22T01:26:37;8.48;;;6.00;;
26951;SDS011;14507;52.418;13.398;2022-07-22T01:29:03;8.00;;;5.50;;
26951;SDS011;14507;52.418;13.398;2022-07-22T01:31:29;6.60;;;4.82;;
26951;SDS011;14507;52.418;13.398;2022-07-22T01:33:55;7.55;;;5.32;;
26951;SDS011;14507;52.418;13.398;2022-07-22T01:36:20;6.82;;;4.88;;
26951;SDS011;14507;52.418;13.398;2022-07-22T01:38:46;6.57;;;4.82;;
26951;SDS011;14507;52.418;13.398;2022-07-22T01:41:12;6.43;;;4.65;;
26951;SDS011;14507;52.418;13.398;2022-07-22T01:43:38;6.03;;;4.32;;
26951;SDS011;14507;52.418;13.398;2022-07-22T01:46:03;8.43;;;5.43;;
26951;SDS011;14507;52.418;13.398;2022-07-22T01:48:29;6.55;;;4.80;;
26951;SDS011;14507;52.418;13.398;2022-07-22T01:50:55;8.43;;;5.15;;
26951;SDS011;14507;52.418;13.398;2022-07-22T01:53:21;5.97;;;4.72;;
26951;SDS011;14507;52.418;13.398;2022-07-22T01:55:47;7.63;;;4.63;;
26951;SDS011;14507;52.418;13.398;2022-07-22T01:58:13;6.57;;;4.63;;
26951;SDS011;14507;52.418;13.398;2022-07-22T02:00:38;5.60;;;4.40;;
26951;SDS011;14507;52.418;13.398;2022-07-22T02:03:04;8.90;;;5.30;;
26951;SDS011;14507;52.418;13.398;2022-07-22T02:05:31;7.60;;;5.50;;
26951;SDS011;14507;52.418;13.398;2022-07-22T02:08:00;6.63;;;4.75;;
26951;SDS011;14507;52.418;13.398;2022-07-22T02:10:27;6.82;;;4.68;;
26951;SDS011;14507;52.418;13.398;2022-07-22T02:12:53;6.85;;;4.50;;
26951;SDS011;14507;52.418;13.398;2022-07-22T02:15:18;7.07;;;4.72;;
26951;SDS011;14507;52.418;13.398;2022-07-22T02:17:44;6.50;;;4.72;;
26951;SDS011;14507;52.418;13.398;2022-07-22T02:20:10;6.70;;;4.50;;
26951;SDS011;14507;52.418;13.398;2022-07-22T02:22:35;6.20;;;4.68;;
26951;SDS011;14507;52.418;13.398;2022-07-22T02:25:01;6.60;;;4.70;;
26951;SDS011;14507;52.418;13.398;2022-07-22T02:27:27;8.32;;;4.72;;
26951;SDS011;14507;52.418;13.398;2022-07-22T02:29:53;8.07;;;5.32;;
26951;SDS011;14507;52.418;13.398;2022-07-22T02:32:19;7.28;;;5.32;;
26951;SDS011;14507;52.418;13.398;2022-07-22T02:34:44;7.00;;;5.03;;
26951;SDS011;14507;52.418;13.398;2022-07-22T02:37:10;8.27;;;5.18;;
26951;SDS011;14507;52.418;13.398;2022-07-22T02:39:36;8.20;;;5.65;;
26951;SDS011;14507;52.418;13.398;2022-07-22T02:42:01;8.38;;;5.38;;
26951;SDS011;14507;52.418;13.398;2022-07-22T02:44:27;6.82;;;5.13;;
26951;SDS011;14507;52.418;13.398;2022-07-22T02:46:53;8.00;;;5.53;;
26951;SDS011;14507;52.418;13.398;2022-07-22T02:49:18;7.93;;;5.43;;
26951;SDS011;14507;52.418;13.398;2022-07-22T02:51:44;9.85;;;6.28;;
26951;SDS011;14507;52.418;13.398;2022-07-22T02:54:09;7.25;;;5.57;;
26951;SDS011;14507;52.418;13.398;2022-07-22T02:56:35;9.05;;;5.25;;
26951;SDS011;14507;52.418;13.398;2022-07-22T02:59:01;8.25;;;6.05;;
26951;SDS011;14507;52.418;13.398;2022-07-22T03:01:26;7.93;;;6.00;;
26951;SDS011;14507;52.418;13.398;2022-07-22T03:03:52;8.63;;;6.43;;
26951;SDS011;14507;52.418;13.398;2022-07-22T03:06:18;10.25;;;6.18;;
26951;SDS011;14507;52.418;13.398;2022-07-22T03:08:43;8.20;;;5.97;;
26951;SDS011;14507;52.418;13.398;2022-07-22T03:11:09;9.68;;;6.65;;
26951;SDS011;14507;52.418;13.398;2022-07-22T03:13:34;9.23;;;6.60;;
26951;SDS011;14507;52.418;13.398;2022-07-22T03:16:00;11.50;;;7.88;;
26951;SDS011;14507;52.418;13.398;2022-07-22T03:18:26;10.73;;;7.03;;
26951;SDS011;14507;52.418;13.398;2022-07-22T03:20:51;11.80;;;7.72;;
26951;SDS011;14507;52.418;13.398;2022-07-22T03:23:17;13.07;;;7.72;;
26951;SDS011;14507;52.418;13.398;2022-07-22T03:25:42;13.95;;;7.70;;
26951;SDS011;14507;52.418;13.398;2022-07-22T03:28:08;13.35;;;7.18;;
26951;SDS011;14507;52.418;13.398;2022-07-22T03:30:34;10.80;;;7.85;;
26951;SDS011;14507;52.418;13.398;2022-07-22T03:32:59;8.95;;;6.90;;
26951;SDS011;14507;52.418;13.398;2022-07-22T03:35:25;12.57;;;8.23;;
26951;SDS011;14507;52.418;13.398;2022-07-22T03:37:51;11.02;;;8.10;;
26951;SDS011;14507;52.418;13.398;2022-07-22T03:40:16;11.27;;;7.88;;
26951;SDS011;14507;52.418;13.398;2022-07-22T03:42:42;13.20;;;7.80;;
26951;SDS011;14507;52.418;13.398;2022-07-22T03:45:08;10.90;;;7.60;;
26951;SDS011;14507;52.418;13.398;2022-07-22T03:47:34;12.30;;;8.32;;
26951;SDS011;14507;52.418;13.398;2022-07-22T03:50:00;10.27;;;7.57;;
26951;SDS011;14507;52.418;13.398;2022-07-22T03:52:27;11.63;;;8.75;;
26951;SDS011;14507;52.418;13.398;2022-07-22T03:54:53;10.90;;;7.93;;
26951;SDS011;14507;52.418;13.398;2022-07-22T03:57:19;12.65;;;9.15;;
26951;SDS011;14507;52.418;13.398;2022-07-22T03:59:45;13.35;;;8.98;;
26951;SDS011;14507;52.418;13.398;2022-07-22T04:02:11;11.88;;;8.98;;
26951;SDS011;14507;52.418;13.398;2022-07-22T04:04:37;15.15;;;8.65;;
26951;SDS011;14507;52.418;13.398;2022-07-22T04:07:11;13.55;;;8.80;;
26951;SDS011;14507;52.418;13.398;2022-07-22T04:09:37;13.13;;;8.65;;
26951;SDS011;14507;52.418;13.398;2022-07-22T04:12:03;10.43;;;8.45;;
26951;SDS011;14507;52.418;13.398;2022-07-22T04:14:29;11.98;;;8.65;;
26951;SDS011;14507;52.418;13.398;2022-07-22T04:16:54;13.93;;;8.73;;
26951;SDS011;14507;52.418;13.398;2022-07-22T04:19:20;18.40;;;9.77;;
26951;SDS011;14507;52.418;13.398;2022-07-22T04:21:45;15.88;;;9.07;;
26951;SDS011;14507;52.418;13.398;2022-07-22T04:24:11;15.60;;;9.73;;
26951;SDS011;14507;52.418;13.398;2022-07-22T04:26:36;11.75;;;8.55;;
26951;SDS011;14507;52.418;13.398;2022-07-22T04:29:03;16.40;;;9.05;;
26951;SDS011;14507;52.418;13.398;2022-07-22T04:31:29;11.55;;;8.75;;
26951;SDS011;14507;52.418;13.398;2022-07-22T04:33:55;11.63;;;8.35;;
26951;SDS011;14507;52.418;13.398;2022-07-22T04:36:21;12.55;;;8.45;;
26951;SDS011;14507;52.418;13.398;2022-07-22T04:38:47;12.85;;;8.70;;
26951;SDS011;14507;52.418;13.398;2022-07-22T04:41:13;11.65;;;9.13;;
26951;SDS011;14507;52.418;13.398;2022-07-22T04:43:39;13.90;;;8.90;;
26951;SDS011;14507;52.418;13.398;2022-07-22T04:46:04;14.30;;;10.25;;
26951;SDS011;14507;52.418;13.398;2022-07-22T04:48:30;12.20;;;9.45;;
26951;SDS011;14507;52.418;13.398;2022-07-22T04:50:59;14.02;;;9.70;;
26951;SDS011;14507;52.418;13.398;2022-07-22T04:53:25;13.52;;;9.00;;
26951;SDS011;14507;52.418;13.398;2022-07-22T04:55:51;12.85;;;9.52;;
26951;SDS011;14507;52.418;13.398;2022-07-22T04:58:17;14.48;;;10.60;;
26951;SDS011;14507;52.418;13.398;2022-07-22T05:00:43;11.52;;;9.25;;
26951;SDS011;14507;52.418;13.398;2022-07-22T05:03:08;13.82;;;9.80;;
26951;SDS011;14507;52.418;13.398;2022-07-22T05:05:34;13.15;;;9.00;;
26951;SDS011;14507;52.418;13.398;2022-07-22T05:08:00;12.38;;;9.32;;
26951;SDS011;14507;52.418;13.398;2022-07-22T05:10:25;14.65;;;10.07;;
26951;SDS011;14507;52.418;13.398;2022-07-22T05:12:51;16.80;;;10.20;;
26951;SDS011;14507;52.418;13.398;2022-07-22T05:15:17;11.77;;;9.07;;
26951;SDS011;14507;52.418;13.398;2022-07-22T05:17:42;11.27;;;9.32;;
26951;SDS011;14507;52.418;13.398;2022-07-22T05:20:08;16.00;;;9.80;;
26951;SDS011;14507;52.418;13.398;2022-07-22T05:22:35;15.60;;;10.23;;
26951;SDS011;14507;52.418;13.398;2022-07-22T05:25:01;14.80;;;10.60;;
26951;SDS011;14507;52.418;13.398;2022-07-22T05:27:26;14.55;;;10.40;;
26951;SDS011;14507;52.418;13.398;2022-07-22T05:29:52;16.05;;;11.10;;
26951;SDS011;14507;52.418;13.398;2022-07-22T05:32:17;18.48;;;11.27;;
26951;SDS011;14507;52.418;13.398;2022-07-22T05:34:43;17.60;;;12.20;;
26951;SDS011;14507;52.418;13.398;2022-07-22T05:37:09;14.63;;;10.63;;
26951;SDS011;14507;52.418;13.398;2022-07-22T05:39:34;14.63;;;11.50;;
26951;SDS011;14507;52.418;13.398;2022-07-22T05:42:00;14.02;;;10.55;;
26951;SDS011;14507;52.418;13.398;2022-07-22T05:44:25;13.48;;;9.88;;
26951;SDS011;14507;52.418;13.398;2022-07-22T05:46:51;17.42;;;10.55;;
26951;SDS011;14507;52.418;13.398;2022-07-22T05:49:17;13.93;;;10.38;;
26951;SDS011;14507;52.418;13.398;2022-07-22T05:51:42;12.00;;;9.40;;
26951;SDS011;14507;52.418;13.398;2022-07-22T05:54:08;16.95;;;11.00;;
26951;SDS011;14507;52.418;13.398;2022-07-22T05:56:34;12.85;;;9.60;;
26951;SDS011;14507;52.418;13.398;2022-07-22T05:58:59;14.38;;;10.52;;
26951;SDS011;14507;52.418;13.398;2022-07-22T06:01:25;15.02;;;11.02;;
26951;SDS011;14507;52.418;13.398;2022-07-22T06:03:51;12.60;;;9.43;;
26951;SDS011;14507;52.418;13.398;2022-07-22T06:06:17;15.43;;;11.00;;
26951;SDS011;14507;52.418;13.398;2022-07-22T06:08:42;12.05;;;9.60;;
26951;SDS011;14507;52.418;13.398;2022-07-22T06:11:08;14.75;;;12.00;;
26951;SDS011;14507;52.418;13.398;2022-07-22T06:13:34;11.77;;;8.93;;
26951;SDS011;14507;52.418;13.398;2022-07-22T06:15:59;12.07;;;9.30;;
26951;SDS011;14507;52.418;13.398;2022-07-22T06:18:25;12.52;;;9.02;;
26951;SDS011;14507;52.418;13.398;2022-07-22T06:20:51;14.35;;;10.32;;
26951;SDS011;14507;52.418;13.398;2022-07-22T06:23:17;14.65;;;9.13;;
26951;SDS011;14507;52.418;13.398;2022-07-22T06:25:43;10.13;;;8.13;;
26951;SDS011;14507;52.418;13.398;2022-07-22T06:28:09;10.50;;;8.43;;
26951;SDS011;14507;52.418;13.398;2022-07-22T06:30:35;12.05;;;8.80;;
26951;SDS011;14507;52.418;13.398;2022-07-22T06:33:01;11.68;;;8.55;;
26951;SDS011;14507;52.418;13.398;2022-07-22T06:35:26;13.15;;;8.63;;
26951;SDS011;14507;52.418;13.398;2022-07-22T06:37:52;12.30;;;8.57;;
26951;SDS011;14507;52.418;13.398;2022-07-22T06:40:18;10.20;;;7.50;;
26951;SDS011;14507;52.418;13.398;2022-07-22T06:42:44;12.38;;;8.48;;
26951;SDS011;14507;52.418;13.398;2022-07-22T06:45:09;11.40;;;7.85;;
26951;SDS011;14507;52.418;13.398;2022-07-22T06:47:35;11.32;;;8.20;;
26951;SDS011;14507;52.418;13.398;2022-07-22T06:50:05;11.30;;;8.63;;
26951;SDS011;14507;52.418;13.398;2022-07-22T06:52:32;9.82;;;8.02;;
26951;SDS011;14507;52.418;13.398;2022-07-22T06:54:57;12.68;;;9.18;;
26951;SDS011;14507;52.418;13.398;2022-07-22T06:57:23;12.23;;;9.30;;
26951;SDS011;14507;52.418;13.398;2022-07-22T06:59:49;9.98;;;8.45;;
26951;SDS011;14507;52.418;13.398;2022-07-22T07:02:15;8.93;;;6.72;;
26951;SDS011;14507;52.418;13.398;2022-07-22T07:04:40;10.15;;;7.07;;
26951;SDS011;14507;52.418;13.398;2022-07-22T07:07:07;14.55;;;8.80;;
26951;SDS011;14507;52.418;13.398;2022-07-22T07:09:33;11.18;;;8.25;;
26951;SDS011;14507;52.418;13.398;2022-07-22T07:11:58;11.35;;;7.13;;
26951;SDS011;14507;52.418;13.398;2022-07-22T07:14:24;9.20;;;7.22;;
26951;SDS011;14507;52.418;13.398;2022-07-22T07:16:50;8.40;;;6.20;;
26951;SDS011;14507;52.418;13.398;2022-07-22T07:19:15;9.63;;;6.90;;
26951;SDS011;14507;52.418;13.398;2022-07-22T07:21:41;10.75;;;6.43;;
26951;SDS011;14507;52.418;13.398;2022-07-22T07:24:06;7.28;;;5.82;;
26951;SDS011;14507;52.418;13.398;2022-07-22T07:26:32;7.63;;;6.07;;
26951;SDS011;14507;52.418;13.398;2022-07-22T07:28:57;7.28;;;5.38;;
26951;SDS011;14507;52.418;13.398;2022-07-22T07:31:23;7.83;;;5.23;;
26951;SDS011;14507;52.418;13.398;2022-07-22T07:33:50;7.68;;;5.53;;
26951;SDS011;14507;52.418;13.398;2022-07-22T07:36:16;7.32;;;5.72;;
26951;SDS011;14507;52.418;13.398;2022-07-22T07:38:41;7.40;;;5.93;;
26951;SDS011;14507;52.418;13.398;2022-07-22T07:41:07;5.97;;;4.60;;
26951;SDS011;14507;52.418;13.398;2022-07-22T07:43:33;8.30;;;5.60;;
26951;SDS011;14507;52.418;13.398;2022-07-22T07:45:59;9.57;;;4.75;;
26951;SDS011;14507;52.418;13.398;2022-07-22T07:48:25;7.57;;;5.10;;
26951;SDS011;14507;52.418;13.398;2022-07-22T07:50:50;8.15;;;4.80;;
26951;SDS011;14507;52.418;13.398;2022-07-22T07:53:16;5.82;;;3.95;;
26951;SDS011;14507;52.418;13.398;2022-07-22T07:55:43;5.65;;;4.18;;
26951;SDS011;14507;52.418;13.398;2022-07-22T07:58:08;6.43;;;4.60;;
26951;SDS011;14507;52.418;13.398;2022-07-22T08:00:34;6.50;;;3.88;;
26951;SDS011;14507;52.418;13.398;2022-07-22T08:03:02;5.50;;;4.50;;
26951;SDS011;14507;52.418;13.398;2022-07-22T08:05:28;5.13;;;4.03;;
26951;SDS011;14507;52.418;13.398;2022-07-22T08:07:54;7.65;;;4.95;;
26951;SDS011;14507;52.418;13.398;2022-07-22T08:10:20;9.05;;;3.85;;
26951;SDS011;14507;52.418;13.398;2022-07-22T08:12:46;6.32;;;4.25;;
26951;SDS011;14507;52.418;13.398;2022-07-22T08:15:12;6.40;;;4.30;;
26951;SDS011;14507;52.418;13.398;2022-07-22T08:17:38;6.72;;;4.22;;
26951;SDS011;14507;52.418;13.398;2022-07-22T08:20:04;8.13;;;4.32;;
26951;SDS011;14507;52.418;13.398;2022-07-22T08:22:30;5.40;;;4.43;;
26951;SDS011;14507;52.418;13.398;2022-07-22T08:24:56;7.32;;;4.60;;
26951;SDS011;14507;52.418;13.398;2022-07-22T08:27:21;6.13;;;4.28;;
26951;SDS011;14507;52.418;13.398;2022-07-22T08:29:47;9.70;;;4.00;;
26951;SDS011;14507;52.418;13.398;2022-07-22T08:32:13;5.00;;;3.60;;
26951;SDS011;14507;52.418;13.398;2022-07-22T08:34:41;5.03;;;3.78;;
26951;SDS011;14507;52.418;13.398;2022-07-22T08:37:07;5.72;;;3.47;;
26951;SDS011;14507;52.418;13.398;2022-07-22T08:39:32;6.28;;;3.95;;
26951;SDS011;14507;52.418;13.398;2022-07-22T08:41:59;5.95;;;3.25;;
26951;SDS011;14507;52.418;13.398;2022-07-22T08:44:27;6.60;;;3.60;;
26951;SDS011;14507;52.418;13.398;2022-07-22T08:46:58;3.70;;;2.80;;
26951;SDS011;14507;52.418;13.398;2022-07-22T08:51:51;5.03;;;3.58;;
26951;SDS011;14507;52.418;13.398;2022-07-22T08:54:16;5.30;;;3.47;;
26951;SDS011;14507;52.418;13.398;2022-07-22T08:56:45;5.10;;;4.00;;
26951;SDS011;14507;52.418;13.398;2022-07-22T08:59:15;5.85;;;3.60;;
26951;SDS011;14507;52.418;13.398;2022-07-22T09:04:55;6.65;;;3.55;;
26951;SDS011;14507;52.418;13.398;2022-07-22T09:07:26;7.47;;;3.45;;
26951;SDS011;14507;52.418;13.398;2022-07-22T09:09:54;4.05;;;3.10;;
26951;SDS011;14507;52.418;13.398;2022-07-22T09:12:21;3.60;;;3.00;;
26951;SDS011;14507;52.418;13.398;2022-07-22T09:14:48;4.22;;;3.08;;
26951;SDS011;14507;52.418;13.398;2022-07-22T09:19:47;9.65;;;3.25;;
26951;SDS011;14507;52.418;13.398;2022-07-22T09:22:13;5.00;;;3.40;;
26951;SDS011;14507;52.418;13.398;2022-07-22T09:24:39;5.07;;;3.55;;
26951;SDS011;14507;52.418;13.398;2022-07-22T09:27:04;4.97;;;3.65;;
26951;SDS011;14507;52.418;13.398;2022-07-22T09:29:31;4.13;;;3.20;;
26951;SDS011;14507;52.418;13.398;2022-07-22T09:31:57;4.65;;;3.75;;
26951;SDS011;14507;52.418;13.398;2022-07-22T09:34:31;4.15;;;3.50;;
26951;SDS011;14507;52.418;13.398;2022-07-22T09:36:59;5.50;;;3.88;;
26951;SDS011;14507;52.418;13.398;2022-07-22T09:41:55;6.70;;;3.28;;
26951;SDS011;14507;52.418;13.398;2022-07-22T09:44:25;4.72;;;3.33;;
26951;SDS011;14507;52.418;13.398;2022-07-22T09:46:51;6.20;;;3.65;;
26951;SDS011;14507;52.418;13.398;2022-07-22T09:49:29;5.05;;;2.97;;
26951;SDS011;14507;52.418;13.398;2022-07-22T09:51:56;4.35;;;3.17;;
26951;SDS011;14507;52.418;13.398;2022-07-22T09:54:22;6.93;;;2.90;;
26951;SDS011;14507;52.418;13.398;2022-07-22T09:56:48;3.65;;;3.05;;
26951;SDS011;14507;52.418;13.398;2022-07-22T09:59:13;3.90;;;2.95;;
26951;SDS011;14507;52.418;13.398;2022-07-22T10:01:39;5.13;;;3.15;;
26951;SDS011;14507;52.418;13.398;2022-07-22T10:04:06;3.72;;;2.88;;
26951;SDS011;14507;52.418;13.398;2022-07-22T10:06:32;4.78;;;2.70;;
26951;SDS011;14507;52.418;13.398;2022-07-22T10:09:02;4.47;;;2.70;;
26951;SDS011;14507;52.418;13.398;2022-07-22T10:11:27;4.35;;;2.80;;
26951;SDS011;14507;52.418;13.398;2022-07-22T10:13:53;6.90;;;3.00;;
26951;SDS011;14507;52.418;13.398;2022-07-22T10:16:20;3.53;;;2.55;;
26951;SDS011;14507;52.418;13.398;2022-07-22T10:18:46;4.57;;;2.42;;
26951;SDS011;14507;52.418;13.398;2022-07-22T10:21:12;3.17;;;2.22;;
26951;SDS011;14507;52.418;13.398;2022-07-22T10:26:56;4.40;;;2.60;;
26951;SDS011;14507;52.418;13.398;2022-07-22T10:29:41;6.15;;;2.72;;
26951;SDS011;14507;52.418;13.398;2022-07-22T10:34:41;3.40;;;2.28;;
26951;SDS011;14507;52.418;13.398;2022-07-22T10:45:25;3.37;;;2.10;;
26951;SDS011;14507;52.418;13.398;2022-07-22T10:48:04;2.60;;;1.95;;
26951;SDS011;14507;52.418;13.398;2022-07-22T10:53:03;3.03;;;2.03;;
26951;SDS011;14507;52.418;13.398;2022-07-22T10:55:30;2.83;;;2.28;;
26951;SDS011;14507;52.418;13.398;2022-07-22T10:57:56;3.22;;;2.05;;
26951;SDS011;14507;52.418;13.398;2022-07-22T11:00:24;2.85;;;2.05;;
26951;SDS011;14507;52.418;13.398;2022-07-22T11:02:50;3.78;;;2.08;;
26951;SDS011;14507;52.418;13.398;2022-07-22T11:05:26;2.67;;;1.90;;
26951;SDS011;14507;52.418;13.398;2022-07-22T11:07:53;4.65;;;2.17;;
26951;SDS011;14507;52.418;13.398;2022-07-22T11:10:19;4.40;;;2.40;;
26951;SDS011;14507;52.418;13.398;2022-07-22T11:12:46;3.13;;;2.30;;
26951;SDS011;14507;52.418;13.398;2022-07-22T11:15:12;3.58;;;2.42;;
26951;SDS011;14507;52.418;13.398;2022-07-22T11:17:38;3.45;;;2.42;;
26951;SDS011;14507;52.418;13.398;2022-07-22T11:20:05;3.30;;;2.33;;
26951;SDS011;14507;52.418;13.398;2022-07-22T11:22:34;3.17;;;2.03;;
26951;SDS011;14507;52.418;13.398;2022-07-22T11:25:00;3.03;;;2.00;;
26951;SDS011;14507;52.418;13.398;2022-07-22T11:27:29;3.80;;;2.28;;
26951;SDS011;14507;52.418;13.398;2022-07-22T11:29:55;3.90;;;2.60;;
26951;SDS011;14507;52.418;13.398;2022-07-22T11:32:23;3.30;;;2.60;;
26951;SDS011;14507;52.418;13.398;2022-07-22T11:34:50;4.78;;;2.53;;
26951;SDS011;14507;52.418;13.398;2022-07-22T11:37:17;4.18;;;2.60;;
26951;SDS011;14507;52.418;13.398;2022-07-22T11:39:47;3.30;;;2.38;;
26951;SDS011;14507;52.418;13.398;2022-07-22T11:42:13;3.25;;;2.60;;
26951;SDS011;14507;52.418;13.398;2022-07-22T11:44:38;3.38;;;2.30;;
26951;SDS011;14507;52.418;13.398;2022-07-22T11:47:05;2.90;;;2.17;;
26951;SDS011;14507;52.418;13.398;2022-07-22T11:49:33;4.32;;;2.60;;
26951;SDS011;14507;52.418;13.398;2022-07-22T11:54:26;3.30;;;2.53;;
26951;SDS011;14507;52.418;13.398;2022-07-22T11:56:52;3.10;;;2.30;;
26951;SDS011;14507;52.418;13.398;2022-07-22T11:59:18;3.22;;;2.60;;
26951;SDS011;14507;52.418;13.398;2022-07-22T12:01:45;3.25;;;2.40;;
26951;SDS011;14507;52.418;13.398;2022-07-22T12:04:16;2.70;;;2.13;;
26951;SDS011;14507;52.418;13.398;2022-07-22T12:06:46;2.78;;;2.10;;
26951;SDS011;14507;52.418;13.398;2022-07-22T12:11:44;3.38;;;2.30;;
26951;SDS011;14507;52.418;13.398;2022-07-22T12:14:12;3.03;;;2.20;;
26951;SDS011;14507;52.418;13.398;2022-07-22T12:16:43;3.50;;;2.38;;
26951;SDS011;14507;52.418;13.398;2022-07-22T12:19:18;2.92;;;2.42;;
26951;SDS011;14507;52.418;13.398;2022-07-22T12:21:51;3.10;;;1.95;;
26951;SDS011;14507;52.418;13.398;2022-07-22T12:24:35;2.55;;;1.98;;
26951;SDS011;14507;52.418;13.398;2022-07-22T12:32:05;13.15;;;2.22;;
26951;SDS011;14507;52.418;13.398;2022-07-22T12:34:34;2.35;;;1.67;;
26951;SDS011;14507;52.418;13.398;2022-07-22T12:37:16;3.20;;;1.52;;
26951;SDS011;14507;52.418;13.398;2022-07-22T12:42:25;2.75;;;1.60;;
26951;SDS011;14507;52.418;13.398;2022-07-22T12:45:03;1.90;;;1.30;;
26951;SDS011;14507;52.418;13.398;2022-07-22T12:47:41;4.38;;;1.25;;
26951;SDS011;14507;52.418;13.398;2022-07-22T12:50:18;1.98;;;1.40;;
26951;SDS011;14507;52.418;13.398;2022-07-22T12:52:45;2.88;;;1.48;;
26951;SDS011;14507;52.418;13.398;2022-07-22T12:55:11;2.08;;;1.48;;
26951;SDS011;14507;52.418;13.398;2022-07-22T12:57:37;2.10;;;1.40;;
26951;SDS011;14507;52.418;13.398;2022-07-22T13:00:03;2.00;;;1.40;;
26951;SDS011;14507;52.418;13.398;2022-07-22T13:02:29;1.63;;;1.30;;
26951;SDS011;14507;52.418;13.398;2022-07-22T13:04:55;2.33;;;1.52;;
26951;SDS011;14507;52.418;13.398;2022-07-22T13:07:20;3.25;;;1.48;;
26951;SDS011;14507;52.418;13.398;2022-07-22T13:09:46;2.17;;;1.40;;
26951;SDS011;14507;52.418;13.398;2022-07-22T13:12:17;2.50;;;1.27;;
26951;SDS011;14507;52.418;13.398;2022-07-22T13:14:43;3.72;;;1.35;;
26951;SDS011;14507;52.418;13.398;2022-07-22T13:17:08;1.73;;;1.25;;
26951;SDS011;14507;52.418;13.398;2022-07-22T13:19:34;1.50;;;1.20;;
26951;SDS011;14507;52.418;13.398;2022-07-22T13:22:02;1.92;;;1.20;;
26951;SDS011;14507;52.418;13.398;2022-07-22T13:24:30;2.22;;;1.55;;
26951;SDS011;14507;52.418;13.398;2022-07-22T13:26:55;3.65;;;1.52;;
26951;SDS011;14507;52.418;13.398;2022-07-22T13:29:21;2.85;;;1.35;;
26951;SDS011;14507;52.418;13.398;2022-07-22T13:31:46;3.33;;;1.60;;
26951;SDS011;14507;52.418;13.398;2022-07-22T13:34:14;4.30;;;1.42;;
26951;SDS011;14507;52.418;13.398;2022-07-22T13:36:40;3.15;;;1.23;;
26951;SDS011;14507;52.418;13.398;2022-07-22T13:39:05;1.85;;;1.17;;
26951;SDS011;14507;52.418;13.398;2022-07-22T13:41:31;1.58;;;1.17;;
26951;SDS011;14507;52.418;13.398;2022-07-22T13:43:57;2.00;;;1.23;;
26951;SDS011;14507;52.418;13.398;2022-07-22T13:46:22;2.15;;;1.13;;
26951;SDS011;14507;52.418;13.398;2022-07-22T13:48:48;2.17;;;1.27;;
26951;SDS011;14507;52.418;13.398;2022-07-22T13:51:13;1.38;;;1.10;;
26951;SDS011;14507;52.418;13.398;2022-07-22T13:53:40;3.65;;;1.40;;
26951;SDS011;14507;52.418;13.398;2022-07-22T13:56:07;1.55;;;1.10;;
26951;SDS011;14507;52.418;13.398;2022-07-22T13:58:34;1.52;;;1.02;;
26951;SDS011;14507;52.418;13.398;2022-07-22T14:01:00;1.55;;;1.30;;
26951;SDS011;14507;52.418;13.398;2022-07-22T14:03:26;1.92;;;1.20;;
26951;SDS011;14507;52.418;13.398;2022-07-22T14:05:52;2.08;;;1.20;;
26951;SDS011;14507;52.418;13.398;2022-07-22T14:08:17;2.10;;;1.20;;
26951;SDS011;14507;52.418;13.398;2022-07-22T14:10:43;1.70;;;1.30;;
26951;SDS011;14507;52.418;13.398;2022-07-22T14:13:09;3.10;;;0.90;;
26951;SDS011;14507;52.418;13.398;2022-07-22T14:15:36;1.65;;;1.20;;
26951;SDS011;14507;52.418;13.398;2022-07-22T14:18:01;3.53;;;1.30;;
26951;SDS011;14507;52.418;13.398;2022-07-22T14:20:28;2.92;;;1.25;;
26951;SDS011;14507;52.418;13.398;2022-07-22T14:22:53;1.67;;;1.17;;
26951;SDS011;14507;52.418;13.398;2022-07-22T14:25:19;1.20;;;1.00;;
26951;SDS011;14507;52.418;13.398;2022-07-22T14:27:45;2.05;;;1.00;;
26951;SDS011;14507;52.418;13.398;2022-07-22T14:30:11;3.90;;;1.30;;
26951;SDS011;14507;52.418;13.398;2022-07-22T14:32:37;1.92;;;1.30;;
26951;SDS011;14507;52.418;13.398;2022-07-22T14:35:02;3.60;;;1.30;;
26951;SDS011;14507;52.418;13.398;2022-07-22T14:37:30;1.90;;;1.20;;
26951;SDS011;14507;52.418;13.398;2022-07-22T14:39:56;2.38;;;1.10;;
26951;SDS011;14507;52.418;13.398;2022-07-22T14:42:23;2.07;;;1.10;;
26951;SDS011;14507;52.418;13.398;2022-07-22T14:44:49;5.30;;;1.00;;
26951;SDS011;14507;52.418;13.398;2022-07-22T14:47:15;1.50;;;1.00;;
26951;SDS011;14507;52.418;13.398;2022-07-22T14:49:40;3.92;;;1.30;;
26951;SDS011;14507;52.418;13.398;2022-07-22T14:52:06;3.08;;;1.35;;
26951;SDS011;14507;52.418;13.398;2022-07-22T14:54:31;3.67;;;1.23;;
26951;SDS011;14507;52.418;13.398;2022-07-22T14:56:57;3.95;;;1.17;;
26951;SDS011;14507;52.418;13.398;2022-07-22T14:59:23;2.60;;;0.95;;
26951;SDS011;14507;52.418;13.398;2022-07-22T15:01:50;1.83;;;1.08;;
26951;SDS011;14507;52.418;13.398;2022-07-22T15:04:17;4.10;;;0.98;;